Terminal Aerodrome Forecast
Issued by NWS

Home | Current Version | Previous Version | Text Only | Print | Product List | Glossary On
Versions: 1 2 3 4 5 6 7 8 9 10 11 12 13 14 15 16
040
FTUS45 KABQ 232331
TAFSAF
TAF
KSAF 232331Z 2400/2424 28010KT P6SM FEW100
     FM240200 11010KT P6SM SKC
     FM241000 26012G20KT P6SM SKC=

USA.gov is the U.S. government's official web portal to all federal, state and local government web resources and services.